createdAt,value
2017-05-19T00:00:04.374Z,992.47
2017-05-19T00:00:26.095Z,992.41
2017-05-19T00:00:47.883Z,992.40
2017-05-19T00:01:09.674Z,992.44
2017-05-19T00:01:31.456Z,992.42
2017-05-19T00:01:53.188Z,992.42
2017-05-19T00:02:15.255Z,992.61
2017-05-19T00:02:36.974Z,992.56
2017-05-19T00:02:58.716Z,992.64
2017-05-19T00:04:06.237Z,993.28
2017-05-19T00:04:27.993Z,993.28
2017-05-19T00:04:49.756Z,993.49
2017-05-19T00:05:11.682Z,993.28
2017-05-19T00:05:33.392Z,993.27
2017-05-19T00:05:55.137Z,993.40
2017-05-19T00:06:17.005Z,993.57
2017-05-19T00:06:38.874Z,993.92
2017-05-19T00:07:00.693Z,993.92
2017-05-19T00:07:22.478Z,993.65
2017-05-19T00:07:44.242Z,993.84
2017-05-19T00:08:06.263Z,994.22
2017-05-19T00:08:28.009Z,993.84
2017-05-19T00:08:49.814Z,993.89
2017-05-19T00:09:11.647Z,993.82
2017-05-19T00:09:33.429Z,993.82
2017-05-19T00:10:36.151Z,994.02
2017-05-19T00:10:57.854Z,993.67
2017-05-19T00:11:19.575Z,993.81
2017-05-19T00:11:41.395Z,993.57
2017-05-19T00:12:03.175Z,993.62
2017-05-19T00:12:24.865Z,993.58
2017-05-19T00:12:46.626Z,993.61
2017-05-19T00:13:08.312Z,993.49
2017-05-19T00:13:30.060Z,993.46
2017-05-19T00:13:51.762Z,993.63
2017-05-19T00:14:13.458Z,993.54
2017-05-19T00:14:35.327Z,993.71
2017-05-19T00:14:57.165Z,993.68
2017-05-19T00:15:18.885Z,993.62
2017-05-19T00:15:40.871Z,993.70
2017-05-19T00:16:02.736Z,993.60
2017-05-19T00:16:24.428Z,993.92
2017-05-19T00:16:46.137Z,993.67
2017-05-19T00:17:08.059Z,993.65
2017-05-19T00:17:29.982Z,993.56
2017-05-19T00:17:51.795Z,993.65
2017-05-19T00:18:13.504Z,993.61
2017-05-19T00:18:35.240Z,993.67
2017-05-19T00:18:56.978Z,993.60
2017-05-19T00:19:18.694Z,993.72
2017-05-19T00:19:43.706Z,993.63
2017-05-19T00:20:05.688Z,993.60
2017-05-19T00:20:27.442Z,993.74
2017-05-19T00:20:49.167Z,993.92
2017-05-19T00:21:10.914Z,993.76
2017-05-19T00:21:32.650Z,993.77
2017-05-19T00:21:54.469Z,993.59
2017-05-19T00:22:16.434Z,993.57
2017-05-19T00:22:38.169Z,993.50
2017-05-19T00:23:00.154Z,993.44
2017-05-19T00:23:21.978Z,993.48
2017-05-19T00:23:43.792Z,993.46
2017-05-19T00:24:05.634Z,993.60
2017-05-19T00:24:27.631Z,993.71
2017-05-19T00:24:54.295Z,993.88
2017-05-19T00:25:16.162Z,993.67
2017-05-19T00:25:37.977Z,993.56
2017-05-19T00:25:59.764Z,993.55
2017-05-19T00:26:21.470Z,993.48
2017-05-19T00:26:43.236Z,993.62
2017-05-19T00:27:05.005Z,993.58
2017-05-19T00:27:26.908Z,993.73
2017-05-19T00:27:51.586Z,993.73
2017-05-19T00:28:13.459Z,993.64
2017-05-19T00:28:35.188Z,993.65
2017-05-19T00:28:57.030Z,993.61
2017-05-19T00:29:18.866Z,993.69
2017-05-19T00:29:40.571Z,993.76
2017-05-19T00:30:02.297Z,993.84
2017-05-19T00:30:24.046Z,993.84
2017-05-19T00:30:45.754Z,993.58
2017-05-19T00:31:07.458Z,993.74
2017-05-19T00:31:32.082Z,993.88
2017-05-19T00:31:53.926Z,993.86
2017-05-19T00:32:15.718Z,993.77
2017-05-19T00:32:37.452Z,993.69
2017-05-19T00:32:59.337Z,993.59
2017-05-19T00:33:21.053Z,993.74
2017-05-19T00:33:42.968Z,993.61
2017-05-19T00:34:04.758Z,993.62
2017-05-19T00:34:26.458Z,993.57
2017-05-19T00:34:48.276Z,993.64
2017-05-19T00:35:09.998Z,993.83
2017-05-19T00:35:31.876Z,993.82
2017-05-19T00:35:53.582Z,993.80
2017-05-19T00:36:15.336Z,993.85
2017-05-19T00:37:11.142Z,993.82
2017-05-19T00:37:32.937Z,993.80
2017-05-19T00:37:54.705Z,993.69
2017-05-19T00:38:16.551Z,993.65
2017-05-19T00:38:38.302Z,993.76
2017-05-19T00:39:00.151Z,994.04
2017-05-19T00:39:21.863Z,993.81
2017-05-19T00:39:43.562Z,993.78
2017-05-19T00:40:05.299Z,993.85
2017-05-19T00:40:27.022Z,993.81
2017-05-19T00:40:48.737Z,993.93
2017-05-19T00:41:10.459Z,993.95
2017-05-19T00:41:32.204Z,993.94
2017-05-19T00:41:54.320Z,993.84
2017-05-19T00:42:16.076Z,993.98
2017-05-19T00:42:37.805Z,993.88
2017-05-19T00:42:59.584Z,993.91
2017-05-19T00:43:21.331Z,993.73
2017-05-19T00:43:43.262Z,993.90
2017-05-19T00:44:05.426Z,993.93
2017-05-19T00:44:27.265Z,993.83
2017-05-19T00:44:49.061Z,993.68
2017-05-19T00:45:10.786Z,993.77
2017-05-19T00:45:37.304Z,993.72
2017-05-19T00:45:59.047Z,993.83
2017-05-19T00:46:20.986Z,993.69
2017-05-19T00:46:42.943Z,993.68
2017-05-19T00:47:04.664Z,993.68
2017-05-19T00:47:26.561Z,993.94
2017-05-19T00:47:48.387Z,993.59
2017-05-19T00:48:10.080Z,993.59
2017-05-19T00:48:31.887Z,993.66
2017-05-19T00:48:53.618Z,993.86
2017-05-19T00:49:15.496Z,994.06
2017-05-19T00:50:18.524Z,993.74
2017-05-19T00:50:40.349Z,993.89
2017-05-19T00:51:04.992Z,993.72
2017-05-19T00:51:26.724Z,993.78
2017-05-19T00:51:48.489Z,994.15
2017-05-19T00:52:10.195Z,993.84
2017-05-19T00:52:31.947Z,993.90
2017-05-19T00:52:54.096Z,993.86
2017-05-19T00:53:20.591Z,993.85
2017-05-19T00:53:42.363Z,993.94
2017-05-19T00:54:04.114Z,993.90
2017-05-19T00:54:25.831Z,993.88
2017-05-19T00:54:48.104Z,994.01
2017-05-19T00:55:09.940Z,994.02
2017-05-19T00:55:31.963Z,994.26
2017-05-19T00:55:53.704Z,994.30
2017-05-19T00:56:15.464Z,994.15
2017-05-19T00:56:37.501Z,994.11
2017-05-19T00:56:59.311Z,993.90
2017-05-19T00:57:21.043Z,994.07
2017-05-19T00:57:42.924Z,994.12
2017-05-19T00:58:04.728Z,994.08
2017-05-19T00:58:26.420Z,993.97
2017-05-19T00:58:48.145Z,993.97
2017-05-19T00:59:09.952Z,994.00
2017-05-19T00:59:31.654Z,993.90
2017-05-19T00:59:58.161Z,993.91
2017-05-19T01:00:19.864Z,994.32
2017-05-19T01:00:41.595Z,994.08
2017-05-19T01:01:04.329Z,994.01
2017-05-19T01:02:02.194Z,994.00
2017-05-19T01:02:26.813Z,993.90
2017-05-19T01:02:48.735Z,994.05
2017-05-19T01:03:10.937Z,994.20
2017-05-19T01:03:35.883Z,994.11
2017-05-19T01:03:57.592Z,993.93
2017-05-19T01:04:19.412Z,994.24
2017-05-19T01:04:43.792Z,994.23
2017-05-19T01:05:08.136Z,994.00
2017-05-19T01:06:06.749Z,994.00
2017-05-19T01:06:28.487Z,994.14
2017-05-19T01:06:59.750Z,993.89
2017-05-19T01:07:21.764Z,994.07
2017-05-19T01:07:43.559Z,994.03
2017-05-19T01:08:05.534Z,994.04
2017-05-19T01:08:27.397Z,994.01
2017-05-19T01:08:49.331Z,994.07
2017-05-19T01:09:11.146Z,993.97
2017-05-19T01:09:32.895Z,993.91
2017-05-19T01:09:57.332Z,994.28
2017-05-19T01:10:19.436Z,994.11
2017-05-19T01:10:41.146Z,994.08
2017-05-19T01:11:02.928Z,994.03
2017-05-19T01:11:24.718Z,994.17
2017-05-19T01:11:46.504Z,994.13
2017-05-19T01:12:15.644Z,994.35
2017-05-19T01:13:08.710Z,994.14
2017-05-19T01:13:30.463Z,994.02
2017-05-19T01:14:23.574Z,994.10
2017-05-19T01:14:45.506Z,994.01
2017-05-19T01:15:07.249Z,994.05
2017-05-19T01:15:29.108Z,994.34
2017-05-19T01:15:50.897Z,994.41
2017-05-19T01:16:12.643Z,994.09
2017-05-19T01:16:36.606Z,993.95
2017-05-19T01:16:58.393Z,993.93
2017-05-19T01:17:20.149Z,994.04
2017-05-19T01:17:41.918Z,994.07
2017-05-19T01:18:03.670Z,993.96
2017-05-19T01:18:25.430Z,994.13
2017-05-19T01:19:28.027Z,994.21
2017-05-19T01:19:49.733Z,994.19
2017-05-19T01:20:11.510Z,994.15
2017-05-19T01:20:33.406Z,994.03
2017-05-19T01:20:55.176Z,993.99
2017-05-19T01:21:17.031Z,993.95
2017-05-19T01:21:38.813Z,994.21
2017-05-19T01:22:05.344Z,994.28
2017-05-19T01:22:27.143Z,994.07
2017-05-19T01:22:48.924Z,994.11
2017-05-19T01:23:15.497Z,994.13
2017-05-19T01:23:37.269Z,994.02
2017-05-19T01:23:58.979Z,994.09
2017-05-19T01:24:20.698Z,994.14
2017-05-19T01:24:42.524Z,994.20
2017-05-19T01:25:04.246Z,994.19
2017-05-19T01:25:30.772Z,994.46
2017-05-19T01:25:57.365Z,994.40
2017-05-19T01:26:19.147Z,994.41
2017-05-19T01:26:40.913Z,994.31
2017-05-19T01:27:07.480Z,994.38
2017-05-19T01:27:29.200Z,994.41
2017-05-19T01:27:50.915Z,994.16
2017-05-19T01:28:12.742Z,994.38
2017-05-19T01:28:34.539Z,994.33
2017-05-19T01:28:56.293Z,994.21
2017-05-19T01:29:18.007Z,994.16
2017-05-19T01:29:39.811Z,994.31
2017-05-19T01:30:01.606Z,994.18
2017-05-19T01:30:23.425Z,994.23
2017-05-19T01:30:45.385Z,994.05
2017-05-19T01:31:07.112Z,994.17
2017-05-19T01:31:28.833Z,994.14
2017-05-19T01:31:50.733Z,994.20
2017-05-19T01:32:12.623Z,994.27
2017-05-19T01:32:34.383Z,994.41
2017-05-19T01:32:56.122Z,994.19
2017-05-19T01:33:17.838Z,994.11
2017-05-19T01:33:39.535Z,994.27
2017-05-19T01:34:01.382Z,994.12
2017-05-19T01:34:23.182Z,994.30
2017-05-19T01:34:45.020Z,994.18
2017-05-19T01:35:06.717Z,994.25
2017-05-19T01:35:28.544Z,994.24
2017-05-19T01:35:50.322Z,994.48
2017-05-19T01:36:12.081Z,994.37
2017-05-19T01:36:33.824Z,994.27
2017-05-19T01:36:55.532Z,994.27
2017-05-19T01:37:17.267Z,994.21
2017-05-19T01:37:38.976Z,994.18
2017-05-19T01:38:00.680Z,994.40
2017-05-19T01:38:22.434Z,994.44
2017-05-19T01:38:44.230Z,994.35
2017-05-19T01:39:05.938Z,994.60
2017-05-19T01:39:27.692Z,994.43
2017-05-19T01:39:49.385Z,994.61
2017-05-19T01:40:11.149Z,994.39
2017-05-19T01:40:32.918Z,994.56
2017-05-19T01:40:54.736Z,994.55
2017-05-19T01:41:16.450Z,994.45
2017-05-19T01:41:38.273Z,994.39
2017-05-19T01:41:59.976Z,994.52
2017-05-19T01:42:21.710Z,994.42
2017-05-19T01:42:43.531Z,994.42
2017-05-19T01:43:05.232Z,994.41
2017-05-19T01:43:26.935Z,994.28
2017-05-19T01:43:48.715Z,994.40
2017-05-19T01:44:10.426Z,994.28
2017-05-19T01:44:32.287Z,994.41
2017-05-19T01:44:54.012Z,994.64
2017-05-19T01:45:15.866Z,994.51
2017-05-19T01:45:42.367Z,994.49
2017-05-19T01:46:04.133Z,994.49
2017-05-19T01:46:26.016Z,994.65
2017-05-19T01:46:47.776Z,994.34
2017-05-19T01:47:09.677Z,994.34
2017-05-19T01:47:31.460Z,994.30
2017-05-19T01:47:53.163Z,994.32
2017-05-19T01:48:14.995Z,994.37
2017-05-19T01:48:36.798Z,994.31
2017-05-19T01:48:58.655Z,994.40
2017-05-19T01:49:20.403Z,994.25
2017-05-19T01:49:42.150Z,994.19
2017-05-19T01:50:03.959Z,994.25
2017-05-19T01:50:30.530Z,994.35
2017-05-19T01:50:57.130Z,994.39
2017-05-19T01:51:18.899Z,994.28
2017-05-19T01:51:40.648Z,994.52
2017-05-19T01:52:02.353Z,994.51
2017-05-19T01:52:24.097Z,994.49
2017-05-19T01:52:45.959Z,994.38
2017-05-19T01:53:07.873Z,994.27
2017-05-19T01:53:29.592Z,994.24
2017-05-19T01:53:51.366Z,994.34
2017-05-19T01:54:13.234Z,994.28
2017-05-19T01:54:34.979Z,994.28
2017-05-19T01:54:56.740Z,994.25
2017-05-19T01:55:18.524Z,994.38
2017-05-19T01:55:40.246Z,994.37
2017-05-19T01:56:02.105Z,994.46
2017-05-19T01:56:23.832Z,994.43
2017-05-19T01:56:45.531Z,994.38
2017-05-19T01:57:07.230Z,994.39
2017-05-19T01:57:28.926Z,994.31
2017-05-19T01:57:50.771Z,994.18
2017-05-19T01:58:12.473Z,994.28
2017-05-19T01:58:34.210Z,994.42
2017-05-19T01:58:56.118Z,994.33
2017-05-19T01:59:17.884Z,994.28
2017-05-19T01:59:39.625Z,994.41
2017-05-19T02:00:01.715Z,994.59
2017-05-19T02:00:23.431Z,994.66
2017-05-19T02:00:45.231Z,994.67
2017-05-19T02:01:06.985Z,994.55
2017-05-19T02:01:28.709Z,994.51
2017-05-19T02:01:50.564Z,994.48
2017-05-19T02:02:12.252Z,994.55
2017-05-19T02:02:34.013Z,994.63
2017-05-19T02:02:55.845Z,994.80
2017-05-19T02:03:49.093Z,994.72
2017-05-19T02:04:10.865Z,994.57
2017-05-19T02:04:32.692Z,994.87
2017-05-19T02:04:54.466Z,994.59
2017-05-19T02:05:52.967Z,994.68
2017-05-19T02:06:14.730Z,994.60
2017-05-19T02:06:36.455Z,994.62
2017-05-19T02:06:58.196Z,994.56
2017-05-19T02:07:46.485Z,994.53
2017-05-19T02:08:08.267Z,994.64
2017-05-19T02:08:30.068Z,994.46
2017-05-19T02:08:51.889Z,994.82
2017-05-19T02:09:18.492Z,994.53
2017-05-19T02:09:50.360Z,994.66
2017-05-19T02:10:12.119Z,994.34
2017-05-19T02:10:33.994Z,994.35
2017-05-19T02:10:55.773Z,994.42
2017-05-19T02:11:17.740Z,994.33
2017-05-19T02:11:39.615Z,994.43
2017-05-19T02:12:01.517Z,994.41
2017-05-19T02:12:23.292Z,994.74
2017-05-19T02:12:45.018Z,994.68
2017-05-19T02:13:06.803Z,994.49
2017-05-19T02:13:28.728Z,994.44
2017-05-19T02:13:50.548Z,994.35
2017-05-19T02:14:12.496Z,994.28
2017-05-19T02:14:37.334Z,994.15
2017-05-19T02:14:59.130Z,994.62
2017-05-19T02:15:20.873Z,994.54
2017-05-19T02:15:42.605Z,994.26
2017-05-19T02:16:04.307Z,994.39
2017-05-19T02:16:26.038Z,994.17
2017-05-19T02:16:47.791Z,994.30
2017-05-19T02:17:09.565Z,994.38
2017-05-19T02:17:31.524Z,994.37
2017-05-19T02:17:53.354Z,994.35
2017-05-19T02:18:15.259Z,994.14
2017-05-19T02:18:37.000Z,994.17
2017-05-19T02:18:58.697Z,994.43
2017-05-19T02:19:20.410Z,994.30
2017-05-19T02:19:42.183Z,994.24
2017-05-19T02:20:03.956Z,994.12
2017-05-19T02:20:25.812Z,994.21
2017-05-19T02:20:47.546Z,994.27
2017-05-19T02:21:09.519Z,994.26
2017-05-19T02:21:31.350Z,994.20
2017-05-19T02:21:53.261Z,994.25
2017-05-19T02:22:15.023Z,994.17
2017-05-19T02:22:37.088Z,994.18
2017-05-19T02:22:58.796Z,994.14
2017-05-19T02:24:07.409Z,994.13
2017-05-19T02:25:05.960Z,993.99
2017-05-19T02:26:49.347Z,994.12
2017-05-19T02:27:11.740Z,994.25
2017-05-19T02:27:33.841Z,994.07
2017-05-19T02:27:55.909Z,994.19
2017-05-19T02:28:53.858Z,994.10
2017-05-19T02:29:18.519Z,994.12
2017-05-19T02:29:40.247Z,994.10
2017-05-19T02:30:04.683Z,993.95
2017-05-19T02:30:33.707Z,993.89
2017-05-19T02:31:37.322Z,994.21
2017-05-19T02:31:59.902Z,994.02
2017-05-19T02:32:21.890Z,994.05
2017-05-19T02:32:46.825Z,994.00
2017-05-19T02:34:21.101Z,994.04
2017-05-19T02:35:16.981Z,993.93
2017-05-19T02:35:38.820Z,993.96
2017-05-19T02:36:01.053Z,993.96
2017-05-19T02:36:22.799Z,993.99
2017-05-19T02:36:47.552Z,993.98
2017-05-19T02:37:21.991Z,993.98
2017-05-19T02:38:16.713Z,993.88
2017-05-19T02:39:43.326Z,993.98
2017-05-19T02:40:08.485Z,993.83
2017-05-19T02:40:35.266Z,993.87
2017-05-19T02:40:57.117Z,993.86
2017-05-19T02:42:45.232Z,993.86
2017-05-19T02:43:06.947Z,993.93
2017-05-19T02:43:28.735Z,993.87
2017-05-19T02:43:58.290Z,993.68
2017-05-19T02:44:23.104Z,993.89
2017-05-19T02:46:00.410Z,993.79
2017-05-19T02:46:26.996Z,993.92
2017-05-19T02:47:39.039Z,993.87
2017-05-19T02:48:11.353Z,993.66
2017-05-19T02:49:13.875Z,993.64
2017-05-19T02:51:49.370Z,993.68
2017-05-19T02:52:11.763Z,993.71
2017-05-19T02:54:23.582Z,993.79
2017-05-19T02:54:45.428Z,993.70
2017-05-19T02:55:52.804Z,993.74
2017-05-19T02:56:19.377Z,993.80
2017-05-19T02:56:43.957Z,993.83
2017-05-19T02:57:41.929Z,993.72
2017-05-19T02:58:08.413Z,993.67
2017-05-19T02:58:56.657Z,993.77
2017-05-19T03:00:22.428Z,993.87
2017-05-19T03:00:47.273Z,993.63
2017-05-19T03:01:14.868Z,993.73
2017-05-19T03:01:41.525Z,993.64
2017-05-19T03:02:05.836Z,993.66
2017-05-19T03:02:27.994Z,993.65
2017-05-19T03:02:54.042Z,993.63
2017-05-19T03:03:23.623Z,993.69
2017-05-19T03:04:19.750Z,993.69
2017-05-19T03:05:17.064Z,993.68
2017-05-19T03:05:39.505Z,993.67
2017-05-19T03:06:46.657Z,993.70
2017-05-19T03:07:54.791Z,993.79
2017-05-19T03:09:36.346Z,993.91
2017-05-19T03:10:44.651Z,993.91
2017-05-19T03:11:06.470Z,993.79
2017-05-19T03:11:33.303Z,993.80
2017-05-19T03:11:58.132Z,993.69
2017-05-19T03:12:27.545Z,993.81
2017-05-19T03:12:55.082Z,993.80
2017-05-19T03:13:48.604Z,993.67
2017-05-19T03:14:10.844Z,993.89
2017-05-19T03:15:56.035Z,993.74
2017-05-19T03:18:16.920Z,993.83
2017-05-19T03:18:39.403Z,993.93
2017-05-19T03:19:06.042Z,993.81
2017-05-19T03:19:30.973Z,993.95
2017-05-19T03:19:56.089Z,993.91
2017-05-19T03:21:07.607Z,994.04
2017-05-19T03:22:42.110Z,993.96
2017-05-19T03:23:08.602Z,993.93
2017-05-19T03:23:35.284Z,993.92
2017-05-19T03:24:55.814Z,994.04
2017-05-19T03:25:22.357Z,993.95
2017-05-19T03:25:47.912Z,994.02
2017-05-19T03:26:51.202Z,993.96
2017-05-19T03:27:12.921Z,993.98
2017-05-19T03:27:34.649Z,994.23
2017-05-19T03:27:59.338Z,994.12
2017-05-19T03:28:26.316Z,994.08
2017-05-19T03:28:48.331Z,994.09
2017-05-19T03:29:13.248Z,994.07
2017-05-19T03:30:38.481Z,993.93
2017-05-19T03:31:04.908Z,993.88
2017-05-19T03:31:26.871Z,993.99
2017-05-19T03:32:29.670Z,993.97
2017-05-19T03:32:56.664Z,993.94
2017-05-19T03:34:07.435Z,993.99
2017-05-19T03:34:33.922Z,993.99
2017-05-19T03:34:55.642Z,993.92
2017-05-19T03:35:17.341Z,993.87
2017-05-19T03:35:39.052Z,994.04
2017-05-19T03:36:00.870Z,994.09
2017-05-19T03:36:22.716Z,994.07
2017-05-19T03:36:47.502Z,993.99
2017-05-19T03:37:09.306Z,994.05
2017-05-19T03:37:31.237Z,993.98
2017-05-19T03:37:53.138Z,993.87
2017-05-19T03:38:14.966Z,993.86
2017-05-19T03:38:36.797Z,993.91
2017-05-19T03:38:58.678Z,993.98
2017-05-19T03:39:20.647Z,994.12
2017-05-19T03:39:42.455Z,993.96
2017-05-19T03:40:04.465Z,993.82
2017-05-19T03:40:26.504Z,993.91
2017-05-19T03:40:48.263Z,993.83
2017-05-19T03:41:10.071Z,994.07
2017-05-19T03:41:32.160Z,994.01
2017-05-19T03:41:54.103Z,994.12
2017-05-19T03:42:16.186Z,993.86
2017-05-19T03:42:38.047Z,994.01
2017-05-19T03:43:04.573Z,994.06
2017-05-19T03:43:29.513Z,993.82
2017-05-19T03:43:51.780Z,993.94
2017-05-19T03:44:13.721Z,993.97
2017-05-19T03:44:35.550Z,993.86
2017-05-19T03:44:57.516Z,994.11
2017-05-19T03:45:19.524Z,994.09
2017-05-19T03:45:41.229Z,994.02
2017-05-19T03:46:03.058Z,993.86
2017-05-19T03:46:24.959Z,993.81
2017-05-19T03:47:29.721Z,994.00
2017-05-19T03:47:51.561Z,993.99
2017-05-19T03:48:13.424Z,993.95
2017-05-19T03:48:35.524Z,993.89
2017-05-19T03:49:02.035Z,993.77
2017-05-19T03:49:23.857Z,993.96
2017-05-19T03:49:45.621Z,993.93
2017-05-19T03:50:07.472Z,993.83
2017-05-19T03:50:29.460Z,993.81
2017-05-19T03:50:51.219Z,993.85
2017-05-19T03:51:15.918Z,993.79
2017-05-19T03:51:37.763Z,993.88
2017-05-19T03:51:59.733Z,993.86
2017-05-19T03:52:21.691Z,993.92
2017-05-19T03:52:46.255Z,993.91
2017-05-19T03:53:08.255Z,993.83
2017-05-19T03:53:30.256Z,993.76
2017-05-19T03:53:52.150Z,993.90
2017-05-19T03:54:13.880Z,993.91
2017-05-19T03:54:35.738Z,993.95
2017-05-19T03:55:02.252Z,993.82
2017-05-19T03:55:24.001Z,993.79
2017-05-19T03:55:45.705Z,993.76
2017-05-19T03:56:38.970Z,993.79
2017-05-19T03:57:00.713Z,993.80
2017-05-19T03:57:22.626Z,993.75
2017-05-19T03:57:44.381Z,993.68
2017-05-19T03:58:06.129Z,993.77
2017-05-19T03:58:27.895Z,993.73
2017-05-19T03:58:49.616Z,993.76
2017-05-19T03:59:11.483Z,993.86
2017-05-19T03:59:33.229Z,993.76
2017-05-19T03:59:55.004Z,993.79
2017-05-19T04:00:16.803Z,993.77
2017-05-19T04:00:38.729Z,993.78
2017-05-19T04:01:00.492Z,993.72
2017-05-19T04:01:53.586Z,993.71
2017-05-19T04:02:15.497Z,993.67
2017-05-19T04:02:37.476Z,993.65
2017-05-19T04:03:04.183Z,993.71
2017-05-19T04:03:26.131Z,993.63
2017-05-19T04:03:48.233Z,993.62
2017-05-19T04:04:10.154Z,993.74
2017-05-19T04:04:31.963Z,993.64
2017-05-19T04:04:53.939Z,993.59
2017-05-19T04:05:15.835Z,993.63
2017-05-19T04:05:37.757Z,993.60
2017-05-19T04:05:59.518Z,993.59
2017-05-19T04:06:21.253Z,993.70
2017-05-19T04:06:43.190Z,993.49
2017-05-19T04:07:04.946Z,993.62
2017-05-19T04:07:26.901Z,993.62
2017-05-19T04:07:48.720Z,993.64
2017-05-19T04:08:10.929Z,993.65
2017-05-19T04:08:32.705Z,993.63
2017-05-19T04:08:54.686Z,993.58
2017-05-19T04:09:16.684Z,993.62
2017-05-19T04:09:38.466Z,993.60
2017-05-19T04:10:00.347Z,993.66
2017-05-19T04:10:22.129Z,993.53
2017-05-19T04:10:43.887Z,993.57
2017-05-19T04:11:05.705Z,993.55
2017-05-19T04:11:27.480Z,993.55
2017-05-19T04:11:49.316Z,993.54
2017-05-19T04:12:11.406Z,993.62
2017-05-19T04:12:33.274Z,993.57
2017-05-19T04:12:55.083Z,993.56
2017-05-19T04:13:17.016Z,993.54
2017-05-19T04:13:38.955Z,993.55
2017-05-19T04:14:00.790Z,993.60
2017-05-19T04:14:22.723Z,993.69
2017-05-19T04:14:44.731Z,993.68
2017-05-19T04:15:06.876Z,993.55
2017-05-19T04:15:28.687Z,993.57
2017-05-19T04:15:50.510Z,993.72
2017-05-19T04:16:12.452Z,993.58
2017-05-19T04:16:37.242Z,993.53
2017-05-19T04:16:59.003Z,993.52
2017-05-19T04:17:23.447Z,993.63
2017-05-19T04:17:45.159Z,993.62
2017-05-19T04:18:06.989Z,993.65
2017-05-19T04:18:28.847Z,993.67
2017-05-19T04:18:50.722Z,993.61
2017-05-19T04:19:12.583Z,993.61
2017-05-19T04:19:34.441Z,993.66
2017-05-19T04:19:56.305Z,993.81
2017-05-19T04:20:20.712Z,993.72
2017-05-19T04:20:42.661Z,993.59
2017-05-19T04:21:04.507Z,993.66
2017-05-19T04:21:26.205Z,993.64
2017-05-19T04:21:48.082Z,993.64
2017-05-19T04:22:09.808Z,993.69
2017-05-19T04:23:15.231Z,993.89
2017-05-19T04:23:37.161Z,993.82
2017-05-19T04:23:58.903Z,993.70
2017-05-19T04:24:20.708Z,993.70
2017-05-19T04:25:13.750Z,993.60
2017-05-19T04:25:35.512Z,993.73
2017-05-19T04:25:57.248Z,993.80
2017-05-19T04:26:19.233Z,993.80
2017-05-19T04:26:40.990Z,993.66
2017-05-19T04:27:02.912Z,993.76
2017-05-19T04:27:24.821Z,993.77
2017-05-19T04:27:46.666Z,993.72
2017-05-19T04:28:08.400Z,993.67
2017-05-19T04:28:30.256Z,993.74
2017-05-19T04:28:52.007Z,993.85
2017-05-19T04:29:13.698Z,993.74
2017-05-19T04:29:35.566Z,993.87
2017-05-19T04:29:57.291Z,993.84
2017-05-19T04:30:19.084Z,993.85
2017-05-19T04:30:40.927Z,993.72
2017-05-19T04:31:02.680Z,993.74
2017-05-19T04:31:24.414Z,993.74
2017-05-19T04:31:46.775Z,993.84
2017-05-19T04:32:08.496Z,993.82
2017-05-19T04:33:04.473Z,993.64
2017-05-19T04:33:26.224Z,993.65
2017-05-19T04:33:47.973Z,993.71
2017-05-19T04:34:09.749Z,993.71
2017-05-19T04:34:59.087Z,993.58
2017-05-19T04:35:20.817Z,993.72
2017-05-19T04:35:42.616Z,993.74
2017-05-19T04:36:09.141Z,993.70
2017-05-19T04:36:35.955Z,993.62
2017-05-19T04:36:57.800Z,993.69
2017-05-19T04:37:19.586Z,993.73
2017-05-19T04:37:41.307Z,993.76
2017-05-19T04:38:03.103Z,993.72
2017-05-19T04:38:24.883Z,993.61
2017-05-19T04:38:46.787Z,993.71
2017-05-19T04:39:35.042Z,993.88
2017-05-19T04:39:56.769Z,993.83
2017-05-19T04:40:18.467Z,993.75
2017-05-19T04:40:40.179Z,993.88
2017-05-19T04:41:01.938Z,994.07
2017-05-19T04:41:23.712Z,993.93
2017-05-19T04:41:45.507Z,994.01
2017-05-19T04:42:12.076Z,993.93
2017-05-19T04:42:43.439Z,993.99
2017-05-19T04:43:12.731Z,994.13
2017-05-19T04:44:01.031Z,994.06
2017-05-19T04:45:03.617Z,994.10
2017-05-19T04:45:30.135Z,994.22
2017-05-19T04:46:27.946Z,994.22
2017-05-19T04:46:49.683Z,994.09
2017-05-19T04:47:11.394Z,994.44
2017-05-19T04:47:33.115Z,994.44
2017-05-19T04:47:54.952Z,994.26
2017-05-19T04:48:16.808Z,994.12
2017-05-19T04:49:22.941Z,994.34
2017-05-19T04:49:44.642Z,994.26
2017-05-19T04:50:07.438Z,994.54
2017-05-19T04:51:01.275Z,994.20
2017-05-19T04:51:25.985Z,994.30
2017-05-19T04:51:47.751Z,994.23
2017-05-19T04:52:36.224Z,994.16
2017-05-19T04:52:58.404Z,994.52
2017-05-19T04:53:20.424Z,994.43
2017-05-19T04:53:42.226Z,994.39
2017-05-19T04:54:33.887Z,994.30
2017-05-19T04:54:55.586Z,994.35
2017-05-19T04:55:17.364Z,994.28
2017-05-19T04:55:45.880Z,994.16
2017-05-19T04:56:08.664Z,994.09
2017-05-19T04:56:35.245Z,994.47
2017-05-19T04:56:57.266Z,994.28
2017-05-19T04:57:19.202Z,994.38
2017-05-19T04:57:43.548Z,994.42
2017-05-19T04:58:06.278Z,994.21
2017-05-19T04:58:28.213Z,994.27
2017-05-19T04:58:49.915Z,994.42
2017-05-19T04:59:11.932Z,994.44
2017-05-19T05:00:23.547Z,994.42
2017-05-19T05:01:57.335Z,994.35
2017-05-19T05:03:08.571Z,994.15
2017-05-19T05:04:16.599Z,994.26
2017-05-19T05:04:43.247Z,994.54
2017-05-19T05:05:15.255Z,994.38
2017-05-19T05:06:12.627Z,994.51
2017-05-19T05:06:39.273Z,994.42
2017-05-19T05:07:11.619Z,994.41
2017-05-19T05:07:33.497Z,994.31
2017-05-19T05:07:58.471Z,994.64
2017-05-19T05:08:25.011Z,994.66
2017-05-19T05:09:16.797Z,994.42
2017-05-19T05:09:45.935Z,994.33
2017-05-19T05:10:42.649Z,994.33
2017-05-19T05:11:37.114Z,994.35
2017-05-19T05:12:01.792Z,994.45
2017-05-19T05:13:16.455Z,994.38
2017-05-19T05:13:47.052Z,994.23
2017-05-19T05:14:13.566Z,994.41
2017-05-19T05:14:35.674Z,994.48
2017-05-19T05:14:57.580Z,994.49
2017-05-19T05:16:20.433Z,994.41
2017-05-19T05:17:13.748Z,994.43
2017-05-19T05:17:40.652Z,994.37
2017-05-19T05:18:10.291Z,994.47
2017-05-19T05:18:41.726Z,994.47
2017-05-19T05:19:06.285Z,994.53
2017-05-19T05:19:32.930Z,994.54
2017-05-19T05:20:02.120Z,994.41
2017-05-19T05:21:12.404Z,994.57
2017-05-19T05:21:38.875Z,994.45
2017-05-19T05:22:07.576Z,994.53
2017-05-19T05:22:58.505Z,994.47
2017-05-19T05:24:23.976Z,994.36
2017-05-19T05:24:50.479Z,994.25
2017-05-19T05:25:46.490Z,994.34
2017-05-19T05:26:08.407Z,994.30
2017-05-19T05:26:35.207Z,994.39
2017-05-19T05:27:02.256Z,994.53
2017-05-19T05:27:24.108Z,994.39
2017-05-19T05:27:53.681Z,994.44
2017-05-19T05:28:15.809Z,994.45
2017-05-19T05:28:45.694Z,994.47
2017-05-19T05:29:07.990Z,994.40
2017-05-19T05:29:34.615Z,994.42
2017-05-19T05:30:40.396Z,994.41
2017-05-19T05:31:06.787Z,994.41
2017-05-19T05:33:00.614Z,994.49
2017-05-19T05:34:01.377Z,994.23
2017-05-19T05:34:54.367Z,994.24
2017-05-19T05:35:56.897Z,994.33
2017-05-19T05:36:23.390Z,994.28
2017-05-19T05:36:47.671Z,994.30
2017-05-19T05:37:18.750Z,994.42
2017-05-19T05:37:40.586Z,994.38
2017-05-19T05:38:38.604Z,994.29
2017-05-19T05:39:34.433Z,994.28
2017-05-19T05:40:27.781Z,994.26
2017-05-19T05:40:54.277Z,994.12
2017-05-19T05:42:18.213Z,994.13
2017-05-19T05:42:49.621Z,994.34
2017-05-19T05:43:11.630Z,994.26
2017-05-19T05:44:03.194Z,994.16
2017-05-19T05:44:24.953Z,994.17
2017-05-19T05:44:49.352Z,994.22
2017-05-19T05:46:27.745Z,994.38
2017-05-19T05:46:55.088Z,994.23
2017-05-19T05:47:17.243Z,994.24
2017-05-19T05:48:08.670Z,994.27
2017-05-19T05:48:35.329Z,994.12
2017-05-19T05:49:00.323Z,994.17
2017-05-19T05:50:03.405Z,994.27
2017-05-19T05:50:33.026Z,994.25
2017-05-19T05:50:57.378Z,994.23
2017-05-19T05:51:24.370Z,994.17
2017-05-19T05:52:21.520Z,994.06
2017-05-19T05:53:17.297Z,994.15
2017-05-19T05:53:42.117Z,994.21